Time;durP1;ratioP1;P1;durP2;ratioP2;P2;SDS_P1;SDS_P2;PMS_P1;PMS_P2;Temp;Humidity;BMP_temperature;BMP_pressure;BME280_temperature;BME280_humidity;BME280_pressure;Samples;Min_cycle;Max_cycle;Signal;HPM_P1;HPM_P2
2023/03/03 00:02:03;;;;;;;79.22;11.73;;;;;;;;;;4725969;30;20514;-91
2023/03/03 00:04:29;;;;;;;36.92;10.18;;;;;;;;;;4727241;30;20064;-92
2023/03/03 00:06:56;;;;;;;59.88;11.60;;;;;;;;;;4740912;30;20091;-93
2023/03/03 00:09:24;;;;;;;90.57;13.80;;;;;;;;;;4742057;30;20472;-92
2023/03/03 00:11:54;;;;;;;155.88;15.32;;;;;;;;;;4728533;30;20147;-93
2023/03/03 00:14:31;;;;;;;103.88;14.65;;;;;;;;;;4728893;30;20459;-92
2023/03/03 00:16:57;;;;;;;76.00;12.88;;;;;;;;;;4726801;30;20161;-92
2023/03/03 00:19:23;;;;;;;94.63;12.25;;;;;;;;;;4741225;30;20063;-92
2023/03/03 00:21:52;;;;;;;123.28;14.68;;;;;;;;;;4725913;30;20123;-91
2023/03/03 00:24:19;;;;;;;103.07;14.40;;;;;;;;;;4725990;30;20114;-92
2023/03/03 00:26:48;;;;;;;84.43;14.82;;;;;;;;;;4741274;30;20142;-92
2023/03/03 00:29:24;;;;;;;61.92;10.40;;;;;;;;;;4726955;30;20060;-92
2023/03/03 00:31:50;;;;;;;65.65;12.88;;;;;;;;;;4726790;30;20138;-91
2023/03/03 00:34:16;;;;;;;91.60;11.52;;;;;;;;;;4755117;30;20060;-91
2023/03/03 00:36:42;;;;;;;57.22;12.07;;;;;;;;;;4726501;30;20188;-91
2023/03/03 00:39:20;;;;;;;89.30;13.48;;;;;;;;;;4741050;30;20058;-91
2023/03/03 00:41:46;;;;;;;67.88;13.32;;;;;;;;;;4727739;30;20117;-91
2023/03/03 00:44:26;;;;;;;66.82;13.00;;;;;;;;;;4729886;30;20091;-91
2023/03/03 00:46:54;;;;;;;41.28;11.27;;;;;;;;;;4742152;30;20506;-90
2023/03/03 00:49:26;;;;;;;136.18;16.08;;;;;;;;;;4727569;30;20060;-91
2023/03/03 00:51:53;;;;;;;58.20;11.43;;;;;;;;;;4727322;30;20067;-90
2023/03/03 00:54:19;;;;;;;169.73;18.30;;;;;;;;;;4726562;30;20495;-91
2023/03/03 00:56:45;;;;;;;202.48;17.73;;;;;;;;;;4725672;30;20142;-91
2023/03/03 00:59:11;;;;;;;240.00;18.80;;;;;;;;;;4725263;30;20060;-92
2023/03/03 01:01:37;;;;;;;190.88;17.73;;;;;;;;;;4729110;30;20060;-92
2023/03/03 01:04:03;;;;;;;237.43;18.40;;;;;;;;;;4732326;30;20147;-92
2023/03/03 01:06:29;;;;;;;127.32;14.68;;;;;;;;;;4725148;30;20063;-91
2023/03/03 01:08:56;;;;;;;113.82;13.73;;;;;;;;;;4724384;30;20064;-91
2023/03/03 01:11:27;;;;;;;112.18;11.27;;;;;;;;;;4739264;30;20092;-91
2023/03/03 01:13:53;;;;;;;134.55;13.43;;;;;;;;;;4724379;30;20064;-91
2023/03/03 01:16:20;;;;;;;110.28;12.15;;;;;;;;;;4724486;30;20048;-90
2023/03/03 01:18:46;;;;;;;63.88;8.65;;;;;;;;;;4724265;30;20067;-90
2023/03/03 01:21:12;;;;;;;97.40;13.13;;;;;;;;;;4724240;30;20132;-90
2023/03/03 01:23:38;;;;;;;75.95;12.27;;;;;;;;;;4724410;30;20143;-91
2023/03/03 01:26:05;;;;;;;50.47;10.50;;;;;;;;;;4738940;30;20048;-90
2023/03/03 01:28:32;;;;;;;34.13;9.93;;;;;;;;;;4724424;30;20067;-90
2023/03/03 01:31:02;;;;;;;36.55;10.85;;;;;;;;;;4739092;30;20056;-90
2023/03/03 01:33:32;;;;;;;35.80;10.18;;;;;;;;;;4724248;30;20098;-90
2023/03/03 01:35:58;;;;;;;19.00;9.65;;;;;;;;;;4724804;30;20056;-90
2023/03/03 01:38:24;;;;;;;35.75;9.10;;;;;;;;;;4738920;30;20064;-90
2023/03/03 01:40:55;;;;;;;13.00;9.48;;;;;;;;;;4724259;30;20056;-90
2023/03/03 01:43:21;;;;;;;15.93;11.15;;;;;;;;;;4724742;30;20052;-90
2023/03/03 01:45:47;;;;;;;22.35;10.50;;;;;;;;;;4738363;30;20056;-90
2023/03/03 01:48:16;;;;;;;23.73;10.32;;;;;;;;;;4724126;30;20156;-90
2023/03/03 01:50:42;;;;;;;46.17;11.77;;;;;;;;;;4723901;30;20095;-90
2023/03/03 01:53:12;;;;;;;36.55;10.98;;;;;;;;;;4723578;30;20113;-90
2023/03/03 01:55:39;;;;;;;18.33;9.95;;;;;;;;;;4723730;30;20052;-90
2023/03/03 01:58:08;;;;;;;31.17;10.60;;;;;;;;;;4724097;30;20413;-90
2023/03/03 02:00:36;;;;;;;21.67;10.73;;;;;;;;;;4723610;30;20060;-90
2023/03/03 02:03:02;;;;;;;30.70;12.07;;;;;;;;;;4724458;30;20214;-90
2023/03/03 02:05:28;;;;;;;15.05;10.23;;;;;;;;;;4723528;30;20091;-90
2023/03/03 02:07:54;;;;;;;20.67;11.73;;;;;;;;;;4723390;30;20075;-90
2023/03/03 02:10:21;;;;;;;12.30;8.32;;;;;;;;;;4723378;30;20052;-90
2023/03/03 02:12:52;;;;;;;16.08;9.13;;;;;;;;;;4723771;30;20192;-89
2023/03/03 02:15:18;;;;;;;15.63;10.02;;;;;;;;;;4723324;30;20052;-90
2023/03/03 02:17:44;;;;;;;15.00;10.13;;;;;;;;;;4723474;30;20064;-90
2023/03/03 02:20:34;;;;;;;15.48;9.20;;;;;;;;;;4723510;30;20048;-90
2023/03/03 02:23:05;;;;;;;13.77;9.23;;;;;;;;;;4720974;30;20063;-90
2023/03/03 02:25:38;;;;;;;12.30;8.70;;;;;;;;;;4724301;30;20064;-90
2023/03/03 02:28:08;;;;;;;13.63;8.90;;;;;;;;;;4723999;30;20052;-90
2023/03/03 02:30:37;;;;;;;12.75;9.63;;;;;;;;;;4723328;30;20506;-90
2023/03/03 02:33:03;;;;;;;15.35;9.07;;;;;;;;;;4723303;30;20067;-90
2023/03/03 02:35:37;;;;;;;17.13;9.15;;;;;;;;;;4722821;30;20052;-89
2023/03/03 02:38:03;;;;;;;;;;;;;;;;;;4723730;30;20064;-90
2023/03/03 02:40:31;;;;;;;13.93;9.63;;;;;;;;;;4752380;30;19984;-90
2023/03/03 02:42:58;;;;;;;13.07;8.52;;;;;;;;;;4723180;30;20502;-90
2023/03/03 02:45:24;;;;;;;17.52;9.40;;;;;;;;;;4722735;30;20060;-90
2023/03/03 02:47:50;;;;;;;13.77;9.10;;;;;;;;;;4737700;30;20491;-89
2023/03/03 02:50:16;;;;;;;11.88;8.10;;;;;;;;;;4722857;30;20519;-89
2023/03/03 02:52:43;;;;;;;12.52;8.52;;;;;;;;;;4722919;30;20055;-90
2023/03/03 02:55:09;;;;;;;14.15;9.60;;;;;;;;;;4738123;30;20471;-90
2023/03/03 02:57:35;;;;;;;17.95;8.65;;;;;;;;;;4723630;30;20519;-90
2023/03/03 03:00:01;;;;;;;12.55;8.07;;;;;;;;;;4737318;30;20143;-89
2023/03/03 03:02:27;;;;;;;14.25;9.10;;;;;;;;;;4723000;30;20052;-89
2023/03/03 03:04:53;;;;;;;13.30;8.63;;;;;;;;;;4723467;30;20488;-90
2023/03/03 03:07:19;;;;;;;12.60;8.43;;;;;;;;;;4722410;30;20052;-90
2023/03/03 03:09:46;;;;;;;13.05;9.23;;;;;;;;;;4722863;30;20414;-91
2023/03/03 03:12:14;;;;;;;13.52;8.68;;;;;;;;;;4722558;30;20052;-89
2023/03/03 03:14:40;;;;;;;14.90;8.65;;;;;;;;;;4737715;30;20392;-90
2023/03/03 03:17:07;;;;;;;13.55;8.80;;;;;;;;;;4722158;30;20060;-89
2023/03/03 03:19:33;;;;;;;12.30;8.88;;;;;;;;;;4722641;30;20130;-88
2023/03/03 03:21:59;;;;;;;13.75;8.43;;;;;;;;;;4737230;30;20063;-88
2023/03/03 03:24:25;;;;;;;20.15;10.07;;;;;;;;;;4737145;30;20483;-91
2023/03/03 03:26:51;;;;;;;11.93;8.57;;;;;;;;;;4722740;30;20126;-90
2023/03/03 03:29:17;;;;;;;11.52;7.68;;;;;;;;;;4736441;30;20539;-90
2023/03/03 03:31:43;;;;;;;10.40;8.05;;;;;;;;;;4722932;30;20096;-90
2023/03/03 03:34:09;;;;;;;10.50;8.05;;;;;;;;;;4722366;30;20060;-90
2023/03/03 03:36:36;;;;;;;9.55;7.38;;;;;;;;;;4737495;30;20060;-90
2023/03/03 03:39:05;;;;;;;11.45;7.90;;;;;;;;;;4737694;30;20066;-91
2023/03/03 03:41:31;;;;;;;12.88;8.18;;;;;;;;;;4723023;30;20056;-90
2023/03/03 03:43:58;;;;;;;11.68;7.18;;;;;;;;;;4751805;30;20151;-91
2023/03/03 03:46:24;;;;;;;11.20;7.60;;;;;;;;;;4737369;30;20113;-90
2023/03/03 03:48:50;;;;;;;13.10;7.68;;;;;;;;;;4737243;30;20056;-89
2023/03/03 03:51:16;;;;;;;12.10;8.52;;;;;;;;;;4737197;30;20056;-89
2023/03/03 03:53:42;;;;;;;11.57;7.82;;;;;;;;;;4736628;30;20507;-90
2023/03/03 03:56:08;;;;;;;13.05;8.45;;;;;;;;;;4721939;30;20059;-89
2023/03/03 03:58:34;;;;;;;10.10;7.05;;;;;;;;;;4736778;30;20395;-90
2023/03/03 04:01:04;;;;;;;11.35;7.72;;;;;;;;;;4722179;30;20059;-89
2023/03/03 04:03:30;;;;;;;12.07;8.43;;;;;;;;;;4721990;30;20150;-91
2023/03/03 04:05:57;;;;;;;13.02;8.63;;;;;;;;;;4721933;30;20048;-89
2023/03/03 04:08:23;;;;;;;12.13;7.85;;;;;;;;;;4721865;30;20147;-89
2023/03/03 04:10:49;;;;;;;12.82;7.93;;;;;;;;;;4721823;30;20503;-89
2023/03/03 04:13:15;;;;;;;13.27;7.88;;;;;;;;;;4736721;30;20173;-90
2023/03/03 04:15:41;;;;;;;13.52;8.18;;;;;;;;;;4736480;30;20058;-89
2023/03/03 04:18:07;;;;;;;11.38;8.02;;;;;;;;;;4721630;30;20060;-89
2023/03/03 04:20:33;;;;;;;10.38;8.00;;;;;;;;;;4721823;30;20155;-89
2023/03/03 04:23:00;;;;;;;11.15;7.30;;;;;;;;;;4722024;30;20059;-89
2023/03/03 04:25:26;;;;;;;10.45;7.57;;;;;;;;;;4722691;30;20052;-90
2023/03/03 04:27:53;;;;;;;12.45;8.18;;;;;;;;;;4722245;30;20503;-89
2023/03/03 04:30:19;;;;;;;13.38;7.85;;;;;;;;;;4751341;30;20513;-90
2023/03/03 04:32:46;;;;;;;9.88;7.18;;;;;;;;;;4721993;30;20048;-89
2023/03/03 04:35:12;;;;;;;11.80;7.72;;;;;;;;;;4736815;30;20086;-90
2023/03/03 04:37:38;;;;;;;10.90;6.82;;;;;;;;;;4721957;30;20077;-91
2023/03/03 04:40:05;;;;;;;12.00;7.80;;;;;;;;;;4723378;30;20052;-89
2023/03/03 04:42:31;;;;;;;12.50;7.43;;;;;;;;;;4725146;30;20048;-90
2023/03/03 04:44:57;;;;;;;13.43;7.88;;;;;;;;;;4725403;30;20060;-89
2023/03/03 04:47:23;;;;;;;10.35;7.93;;;;;;;;;;4739415;30;20056;-89
2023/03/03 04:49:49;;;;;;;10.35;7.57;;;;;;;;;;4725234;30;20073;-90
2023/03/03 04:52:16;;;;;;;9.80;7.70;;;;;;;;;;4724958;30;20513;-93
2023/03/03 04:54:42;;;;;;;10.90;7.40;;;;;;;;;;4754819;30;20064;-90
2023/03/03 04:57:08;;;;;;;12.27;7.80;;;;;;;;;;4754359;30;20153;-89
2023/03/03 04:59:34;;;;;;;10.57;7.15;;;;;;;;;;4725518;30;20064;-92
2023/03/03 05:02:01;;;;;;;10.27;6.80;;;;;;;;;;4725836;30;20054;-92
2023/03/03 05:04:27;;;;;;;8.50;6.22;;;;;;;;;;4754336;30;20426;-91
2023/03/03 05:06:53;;;;;;;11.32;6.90;;;;;;;;;;4724689;30;20075;-90
2023/03/03 05:09:19;;;;;;;12.63;8.35;;;;;;;;;;4739373;30;20056;-89
2023/03/03 05:11:45;;;;;;;10.18;6.75;;;;;;;;;;4739018;30;20121;-88
2023/03/03 05:14:11;;;;;;;12.90;6.82;;;;;;;;;;4725104;30;20185;-91
2023/03/03 05:16:37;;;;;;;9.80;6.55;;;;;;;;;;4724533;30;20068;-89
2023/03/03 05:19:03;;;;;;;9.07;6.35;;;;;;;;;;4739189;30;20060;-93
2023/03/03 05:21:30;;;;;;;9.95;6.68;;;;;;;;;;4724373;30;20093;-92
2023/03/03 05:23:56;;;;;;;9.98;6.93;;;;;;;;;;4739400;30;20160;-89
2023/03/03 05:26:22;;;;;;;10.95;7.15;;;;;;;;;;4739382;30;20073;-89
2023/03/03 05:28:51;;;;;;;12.63;7.05;;;;;;;;;;4739651;30;20120;-90
2023/03/03 05:31:17;;;;;;;15.07;8.07;;;;;;;;;;4739063;30;20056;-89
2023/03/03 05:33:43;;;;;;;12.20;6.95;;;;;;;;;;4724910;30;20060;-92
2023/03/03 05:36:09;;;;;;;11.27;7.10;;;;;;;;;;4738902;30;20073;-89
2023/03/03 05:38:35;;;;;;;12.13;7.10;;;;;;;;;;4738933;30;20098;-89
2023/03/03 05:41:04;;;;;;;10.65;6.40;;;;;;;;;;4738785;30;20052;-90
2023/03/03 05:43:30;;;;;;;10.27;6.63;;;;;;;;;;4724358;30;20075;-93
2023/03/03 05:45:56;;;;;;;15.45;8.52;;;;;;;;;;4738822;30;20132;-90
2023/03/03 05:48:22;;;;;;;10.73;7.93;;;;;;;;;;4724309;30;20060;-89
2023/03/03 05:50:48;;;;;;;12.30;8.00;;;;;;;;;;4738059;30;20507;-89
2023/03/03 05:53:14;;;;;;;9.65;6.10;;;;;;;;;;4738463;30;20056;-90
2023/03/03 05:55:40;;;;;;;8.68;6.43;;;;;;;;;;4753528;30;20079;-89
2023/03/03 05:58:06;;;;;;;9.57;6.78;;;;;;;;;;4738083;30;20125;-89
2023/03/03 06:07:56;;;;;;;10.82;6.65;;;;;;;;;;4716815;30;20063;-90
2023/03/03 06:10:29;;;;;;;10.13;7.68;;;;;;;;;;4723602;30;20071;-89
2023/03/03 06:17:07;;;;;;;10.55;7.00;;;;;;;;;;4753406;30;20048;-89
2023/03/03 06:19:53;;;;;;;10.40;7.35;;;;;;;;;;4716708;30;20212;-89
2023/03/03 06:22:25;;;;;;;11.90;6.53;;;;;;;;;;4688294;30;20488;-90
2023/03/03 06:28:23;;;;;;;15.88;7.43;;;;;;;;;;4716869;30;20165;-90
2023/03/03 06:30:55;;;;;;;10.07;7.55;;;;;;;;;;4701839;30;20065;-88
2023/03/03 06:33:30;;;;;;;19.23;9.70;;;;;;;;;;4687798;30;20156;-89
2023/03/03 06:36:01;;;;;;;16.35;8.27;;;;;;;;;;4703659;30;20057;-89
2023/03/03 06:38:46;;;;;;;13.93;7.40;;;;;;;;;;4691675;30;20120;-89
2023/03/03 06:41:12;;;;;;;13.07;7.30;;;;;;;;;;4702729;30;20065;-90
2023/03/03 06:43:38;;;;;;;10.43;6.68;;;;;;;;;;4705987;30;20472;-90
2023/03/03 06:46:05;;;;;;;12.63;7.22;;;;;;;;;;4737277;30;20052;-88
2023/03/03 06:48:32;;;;;;;12.38;7.20;;;;;;;;;;4737404;30;20064;-89
2023/03/03 06:51:02;;;;;;;12.32;7.38;;;;;;;;;;4737726;30;20091;-89
2023/03/03 06:53:31;;;;;;;8.75;6.13;;;;;;;;;;4738213;30;20048;-89
2023/03/03 06:56:00;;;;;;;10.43;6.68;;;;;;;;;;4737260;30;20121;-89
2023/03/03 06:58:28;;;;;;;15.52;7.47;;;;;;;;;;4737822;30;20091;-90
2023/03/03 07:00:58;;;;;;;12.52;6.63;;;;;;;;;;4723124;30;20056;-90
2023/03/03 07:03:28;;;;;;;11.32;6.80;;;;;;;;;;4736729;30;20048;-91
2023/03/03 07:05:54;;;;;;;10.07;7.03;;;;;;;;;;4738114;30;20063;-91
2023/03/03 07:08:21;;;;;;;9.95;5.80;;;;;;;;;;4737542;30;20055;-90
2023/03/03 07:10:48;;;;;;;13.95;6.60;;;;;;;;;;4737473;30;20151;-90
2023/03/03 07:13:22;;;;;;;10.20;6.40;;;;;;;;;;4737778;30;20121;-90
2023/03/03 07:16:00;;;;;;;15.80;6.50;;;;;;;;;;4741339;30;20055;-91
2023/03/03 07:18:33;;;;;;;10.48;6.75;;;;;;;;;;4739454;30;20054;-91
2023/03/03 07:21:05;;;;;;;14.52;8.15;;;;;;;;;;4723667;30;20060;-91
2023/03/03 07:23:41;;;;;;;10.13;7.78;;;;;;;;;;4723284;30;20064;-92
2023/03/03 07:26:29;;;;;;;16.92;7.57;;;;;;;;;;4722711;30;20087;-93
2023/03/03 07:28:58;;;;;;;13.02;6.82;;;;;;;;;;4737234;30;20059;-91
2023/03/03 07:31:29;;;;;;;12.38;7.80;;;;;;;;;;4722519;30;20062;-91
2023/03/03 07:33:57;;;;;;;11.48;8.05;;;;;;;;;;4723026;30;20071;-92
2023/03/03 07:36:26;;;;;;;13.95;8.23;;;;;;;;;;4722669;30;20210;-91
2023/03/03 07:39:18;;;;;;;10.15;6.10;;;;;;;;;;4722681;30;20067;-92
2023/03/03 07:41:44;;;;;;;11.27;6.95;;;;;;;;;;4723023;30;20060;-91
2023/03/03 07:44:25;;;;;;;11.02;6.32;;;;;;;;;;4755958;24;20051;-91
2023/03/03 07:46:52;;;;;;;12.30;7.63;;;;;;;;;;4739255;30;20099;-91
2023/03/03 07:49:21;;;;;;;9.05;7.22;;;;;;;;;;4740022;30;20059;-91
2023/03/03 07:51:47;;;;;;;12.05;7.00;;;;;;;;;;4740158;30;20502;-92
2023/03/03 07:54:27;;;;;;;10.23;7.28;;;;;;;;;;4740025;30;20506;-91
2023/03/03 07:56:55;;;;;;;12.27;8.02;;;;;;;;;;4741133;30;20170;-91
2023/03/03 07:59:24;;;;;;;12.05;6.38;;;;;;;;;;4755270;30;20056;-91
2023/03/03 08:01:55;;;;;;;11.25;7.53;;;;;;;;;;4755197;30;20073;-91
2023/03/03 08:04:24;;;;;;;12.95;7.03;;;;;;;;;;4755066;30;20052;-91
2023/03/03 08:06:51;;;;;;;11.88;7.20;;;;;;;;;;4755514;30;20067;-91
2023/03/03 08:09:50;;;;;;;11.10;6.57;;;;;;;;;;4754889;30;20047;-91
2023/03/03 08:12:35;;;;;;;14.10;6.30;;;;;;;;;;4958793;24;20078;-91
2023/03/03 08:15:13;;;;;;;10.55;6.93;;;;;;;;;;4741805;30;20051;-92
2023/03/03 08:24:09;;;;;;;10.07;6.13;;;;;;;;;;4774385;30;20043;-94
2023/03/03 08:26:38;;;;;;;10.88;5.95;;;;;;;;;;4758542;30;20130;-91
2023/03/03 08:29:04;;;;;;;12.00;6.00;;;;;;;;;;4758095;30;20059;-92
2023/03/03 08:31:30;;;;;;;9.50;6.10;;;;;;;;;;4744417;30;20055;-92
2023/03/03 08:33:57;;;;;;;21.80;6.50;;;;;;;;;;4754733;24;20075;-92
2023/03/03 08:36:52;;;;;;;8.75;5.75;;;;;;;;;;4990041;24;20129;-92
2023/03/03 08:39:18;;;;;;;8.02;5.70;;;;;;;;;;4743508;30;20494;-92
2023/03/03 08:41:45;;;;;;;10.07;6.40;;;;;;;;;;4743138;30;20056;-93
2023/03/03 08:44:11;;;;;;;8.98;5.57;;;;;;;;;;4743336;30;20151;-91
2023/03/03 08:46:37;;;;;;;10.02;5.63;;;;;;;;;;4742572;30;20518;-90
2023/03/03 08:49:03;;;;;;;10.98;6.05;;;;;;;;;;4742583;30;20069;-91
2023/03/03 08:51:29;;;;;;;11.82;5.80;;;;;;;;;;4742707;30;20091;-90
2023/03/03 08:53:56;;;;;;;11.10;6.75;;;;;;;;;;4742681;30;20060;-90
2023/03/03 09:03:25;;;;;;;11.85;7.32;;;;;;;;;;4772970;30;20120;-90
2023/03/03 09:05:54;;;;;;;13.35;6.53;;;;;;;;;;4743080;30;20426;-93
2023/03/03 09:08:20;;;;;;;12.13;7.43;;;;;;;;;;4757164;30;20418;-92
2023/03/03 09:10:47;;;;;;;11.30;7.63;;;;;;;;;;4757036;30;20498;-88
2023/03/03 09:13:20;;;;;;;7.75;5.60;;;;;;;;;;4757098;30;20055;-92
2023/03/03 09:15:47;;;;;;;9.63;6.43;;;;;;;;;;4757483;30;20052;-90
2023/03/03 09:18:18;;;;;;;9.50;6.75;;;;;;;;;;4758279;30;20796;-91
2023/03/03 09:20:51;;;;;;;9.40;5.82;;;;;;;;;;4760824;30;20051;-91
2023/03/03 09:23:36;;;;;;;15.00;4.97;;;;;;;;;;4742542;30;20094;-90
2023/03/03 09:26:11;;;;;;;9.63;6.18;;;;;;;;;;4755922;30;20055;-90
2023/03/03 09:28:37;;;;;;;8.23;4.28;;;;;;;;;;4757760;30;20501;-89
2023/03/03 09:31:04;;;;;;;11.60;5.35;;;;;;;;;;4772074;30;20047;-92
2023/03/03 09:34:05;;;;;;;7.05;4.18;;;;;;;;;;4756866;30;20104;-90
2023/03/03 09:36:40;;;;;;;12.63;4.88;;;;;;;;;;4745060;30;20055;-92
2023/03/03 09:39:18;;;;;;;7.97;4.47;;;;;;;;;;4745489;30;20056;-91
2023/03/03 09:45:47;;;;;;;6.22;4.18;;;;;;;;;;4784164;30;20097;-96
2023/03/03 09:48:17;;;;;;;4.03;3.42;;;;;;;;;;4788106;30;20052;-92
2023/03/03 09:51:01;;;;;;;4.43;3.92;;;;;;;;;;4758834;30;20048;-90
2023/03/03 09:53:37;;;;;;;7.53;3.05;;;;;;;;;;4756907;30;20089;-94
2023/03/03 09:56:13;;;;;;;5.63;2.42;;;;;;;;;;4756661;30;20422;-91
2023/03/03 10:01:24;;;;;;;4.80;2.55;;;;;;;;;;5055529;24;20060;-90
2023/03/03 10:15:32;;;;;;;4.00;2.85;;;;;;;;;;4744942;29;20079;-94
2023/03/03 10:18:07;;;;;;;2.85;0.90;;;;;;;;;;4741858;30;20055;-94
2023/03/03 10:20:39;;;;;;;1.50;1.20;;;;;;;;;;4741795;30;20055;-94
2023/03/03 10:23:05;;;;;;;2.88;0.90;;;;;;;;;;4742105;30;20390;-95
2023/03/03 10:49:40;;;;;;;33.30;3.10;;;;;;;;;;4770816;30;20046;-90
2023/03/03 10:52:30;;;;;;;5.20;1.40;;;;;;;;;;4755047;30;20097;-92
2023/03/03 10:58:37;;;;;;;2.88;1.45;;;;;;;;;;4758235;30;20138;-91
2023/03/03 11:01:22;;;;;;;2.25;1.10;;;;;;;;;;4738445;30;20486;-92
2023/03/03 11:03:58;;;;;;;3.40;1.27;;;;;;;;;;4724736;30;20060;-91
2023/03/03 11:06:33;;;;;;;5.47;1.73;;;;;;;;;;4724183;30;20051;-90
2023/03/03 11:09:37;;;;;;;;;;;;;;;;;;;;;
2023/03/03 13:17:36;;;;;;;22.50;2.63;;;;;;;;;;4756856;30;20060;-88
2023/03/03 13:20:23;;;;;;;17.92;3.08;;;;;;;;;;4756947;30;20121;-89
2023/03/03 13:23:03;;;;;;;17.80;4.70;;;;;;;;;;4742982;30;20056;-89
2023/03/03 13:25:57;;;;;;;11.90;2.92;;;7.50;99.90;;;;;;4743206;30;20062;-89
2023/03/03 14:16:35;;;;;;;12.65;2.95;;;;;;;;;;4775145;30;20085;-92
2023/03/03 14:40:16;;;;;;;33.67;4.32;;;;;;;;;;4780532;30;20051;-89
2023/03/03 14:43:16;;;;;;;16.35;4.22;;;;;;;;;;4742262;30;20068;-90
2023/03/03 16:24:23;;;;;;;21.75;3.63;;;;;;;;;;4926814;24;20052;-90
2023/03/03 16:38:58;;;;;;;22.92;4.32;;;;;;;;;;3961264;27;20540;-90
2023/03/03 16:41:37;;;;;;;25.42;3.90;;;;;;;;;;4771277;30;20134;-95
2023/03/03 16:44:14;;;;;;;19.95;4.38;;;;;;;;;;4787701;30;20058;-93
2023/03/03 16:46:46;;;;;;;14.55;4.28;;;;;;;;;;4762109;30;20478;-92
2023/03/03 16:49:42;;;;;;;18.13;3.65;;;6.80;99.90;;;;;;4750791;30;20127;-94
2023/03/03 16:52:12;;;;;;;23.27;4.70;;;;;;;;;;4736481;30;20510;-91
2023/03/03 16:54:57;;;;;;;16.75;3.83;;;;;;;;;;4749659;30;20056;-91
2023/03/03 16:57:50;;;;;;;22.60;5.05;;;;;;;;;;4749311;30;20056;-92
2023/03/03 17:00:29;;;;;;;19.45;5.50;;;;;;;;;;4749577;30;20111;-96
2023/03/03 17:03:03;;;;;;;21.58;5.28;;;;;;;;;;4773712;24;20052;-94
2023/03/03 17:05:29;;;;;;;19.55;4.28;;;;;;;;;;4755522;30;20533;-93
2023/03/03 17:09:00;;;;;;;18.55;3.72;;;6.40;99.90;;;;;;4757010;30;20075;-93
2023/03/03 17:11:44;;;;;;;13.40;4.50;;;;;;;;;;4701951;30;20086;-93
2023/03/03 17:14:33;;;;;;;13.82;4.65;;;;;;;;;;4700706;30;20053;-94
2023/03/03 17:17:08;;;;;;;31.95;4.95;;;;;;;;;;4770916;30;20074;-95
2023/03/03 17:19:35;;;;;;;32.55;4.82;;;;;;;;;;4751851;30;20404;-95
2023/03/03 17:22:25;;;;;;;25.83;6.50;;;;;;;;;;4764846;30;20146;-93
2023/03/03 17:27:27;;;;;;;17.55;4.85;;;;;;;;;;4779548;24;20060;-93
2023/03/03 17:29:53;;;;;;;13.82;4.50;;;;;;;;;;4749007;30;20071;-94
2023/03/03 17:32:23;;;;;;;25.40;6.13;;;;;;;;;;4748226;30;20091;-89
2023/03/03 17:34:58;;;;;;;16.75;4.55;;;;;;;;;;4747187;30;20067;-91
2023/03/03 17:37:39;;;;;;;21.40;4.05;;;;;;;;;;4747121;30;20052;-90
2023/03/03 17:40:19;;;;;;;;;;;;;;;;;;;;;
2023/03/03 17:43:04;;;;;;;25.40;5.10;;;;;;;;;;4762430;30;20088;-94
2023/03/03 17:45:34;;;;;;;14.90;5.95;;;;;;;;;;4763072;30;20067;-93
2023/03/03 17:48:08;;;;;;;19.73;4.40;;;;;;;;;;4764144;30;20058;-90
2023/03/03 17:50:34;;;;;;;;;;;;;;;;;;4764876;30;20056;-92
2023/03/03 17:53:05;;;;;;;26.25;5.20;;;;;;;;;;4763003;30;20376;-89
2023/03/03 17:55:43;;;;;;;23.55;4.15;;;;;;;;;;4777638;30;20131;-92
2023/03/03 17:58:45;;;;;;;25.63;5.15;;;;;;;;;;4762388;30;20055;-90
2023/03/03 18:01:22;;;;;;;19.95;4.07;;;;;;;;;;4695446;30;20067;-89
2023/03/03 18:04:04;;;;;;;18.30;5.18;;;;;;;;;;4759160;30;20048;-90
2023/03/03 18:13:30;;;;;;;15.98;3.78;;;;;;;;;;4782650;30;20121;-96
2023/03/03 18:16:12;;;;;;;20.40;4.65;;;;;;;;;;4765503;30;20067;-94
2023/03/03 18:18:57;;;;;;;29.42;5.82;;;;;;;;;;4765771;30;20065;-93
2023/03/03 18:21:27;;;;;;;20.80;3.97;;;;;;;;;;4766268;30;20055;-95
2023/03/03 18:24:13;;;;;;;31.55;4.53;;;;;;;;;;4781708;30;20059;-93
2023/03/03 18:26:44;;;;;;;21.80;4.68;;;;;;;;;;4768513;30;20051;-93
2023/03/03 18:29:23;;;;;;;13.35;3.55;;;;;;;;;;4775310;24;20056;-93
2023/03/03 18:32:01;;;;;;;18.05;4.28;;;;;;;;;;4767768;30;20056;-90
2023/03/03 18:34:40;;;;;;;26.15;5.30;;;;;;;;;;4765765;30;20121;-90
2023/03/03 18:37:08;;;;;;;19.08;4.85;;;;;;;;;;4764900;30;20064;-94
2023/03/03 18:39:43;;;;;;;27.13;5.22;;;;;;;;;;4765233;30;20052;-94
2023/03/03 18:42:27;;;;;;;24.17;4.95;;;;;;;;;;4781593;30;20055;-91
2023/03/03 18:44:57;;;;;;;20.00;4.82;;;;;;;;;;4782001;30;20055;-92
2023/03/03 18:47:50;;;;;;;24.48;4.35;;;;;;;;;;4766491;30;20098;-93
2023/03/03 18:50:29;;;;;;;23.45;4.97;;;;;;;;;;4745413;30;20494;-93
2023/03/03 18:53:18;;;;;;;23.05;4.88;;;;;;;;;;4766228;30;20067;-91
2023/03/03 18:55:53;;;;;;;18.40;4.85;;;;;;;;;;4752523;30;20583;-90
2023/03/03 18:58:22;;;;;;;29.95;4.85;;;;;;;;;;4781579;30;20063;-89
2023/03/03 19:00:55;;;;;;;24.20;4.90;;;;;;;;;;4813676;24;20052;-92
2023/03/03 19:03:26;;;;;;;14.88;4.15;;;;;;;;;;4745955;30;20059;-90
2023/03/03 19:05:56;;;;;;;14.80;4.55;;;;;;;;;;4746484;30;20146;-90
2023/03/03 19:08:26;;;;;;;22.17;5.57;;;;;;;;;;4745262;30;20059;-90
2023/03/03 19:11:12;;;;;;;25.98;5.80;;;;;;;;;;4745958;30;20071;-88
2023/03/03 19:13:45;;;;;;;19.08;4.97;;;;;;;;;;4762917;30;20056;-91
2023/03/03 19:16:26;;;;;;;20.02;5.32;;;;;;;;;;4764113;30;20059;-89
2023/03/03 19:18:59;;;;;;;20.33;4.68;;;;;;;;;;4748285;30;20067;-89
2023/03/03 19:21:36;;;;;;;16.13;4.45;;;;;;;;;;4732791;30;20056;-91
2023/03/03 19:24:06;;;;;;;18.13;4.00;;;;;;;;;;4746195;30;20530;-89
2023/03/03 19:26:49;;;;;;;19.38;3.65;;;;;;;;;;4745241;30;20063;-90
2023/03/03 19:29:34;;;;;;;9.10;3.38;;;;;;;;;;4744204;30;20100;-88
2023/03/03 19:32:23;;;;;;;14.85;3.60;;;;;;;;;;4762314;24;20055;-89
2023/03/03 19:35:09;;;;;;;14.23;4.60;;;;;;;;;;4754282;30;20442;-96
2023/03/03 19:37:57;;;;;;;22.33;5.30;;;;;;;;;;4768091;30;20143;-96
2023/03/03 19:40:37;;;;;;;16.73;4.10;;;;;;;;;;4767920;30;20134;-93
2023/03/03 19:43:06;;;;;;;19.25;5.20;;;;;;;;;;4752444;30;20047;-96
2023/03/03 19:45:54;;;;;;;21.08;4.97;;;;;;;;;;4745804;30;20067;-93
2023/03/03 19:48:47;;;;;;;25.27;4.30;;;;;;;;;;4734949;30;20465;-92
2023/03/03 19:51:23;;;;;;;26.35;4.38;;;;;;;;;;4749042;30;20336;-92
2023/03/03 19:53:59;;;;;;;22.48;4.32;;;;;;;;;;4748432;30;20054;-97
2023/03/03 19:56:51;;;;;;;27.55;4.97;;;;;;;;;;4764163;30;20055;-92
2023/03/03 19:59:21;;;;;;;25.35;5.40;;;;;;;;;;4735022;30;20076;-93
2023/03/03 20:01:58;;;;;;;13.73;4.00;;;;;;;;;;4736233;30;20052;-93
2023/03/03 20:04:34;;;;;;;16.45;5.05;;;;;;;;;;4733767;30;20147;-93
2023/03/03 20:07:11;;;;;;;9.85;2.83;;;;;;;;;;4740688;24;20046;-94
2023/03/03 20:09:41;;;;;;;20.42;4.03;;;;;;;;;;4755856;24;20055;-93
2023/03/03 20:12:23;;;;;;;15.57;3.88;;;;;;;;;;4752806;30;20067;-93
2023/03/03 20:15:13;;;;;;;20.05;4.43;;;;;;;;;;4768493;30;20498;-96
2023/03/03 20:17:48;;;;;;;16.48;3.10;;;;;;;;;;4769880;30;20055;-91
2023/03/03 20:20:45;;;;;;;18.70;4.63;;;6.20;99.90;;;;;;4778528;24;20490;-93
2023/03/03 20:23:19;;;;;;;9.38;3.10;;;;;;;;;;4755520;30;20060;-91
2023/03/03 20:25:48;;;;;;;10.48;3.50;;;;;;;;;;4755980;30;20055;-94
2023/03/03 20:28:39;;;;;;;16.55;3.50;;;;;;;;;;4761628;30;20094;-92
2023/03/03 20:31:14;;;;;;;10.32;3.78;;;;;;;;;;4754648;30;20079;-91
2023/03/03 20:33:47;;;;;;;15.90;3.95;;;;;;;;;;4769520;30;20055;-92
2023/03/03 20:36:28;;;;;;;15.05;4.32;;;;;;;;;;4770350;30;20468;-92
2023/03/03 20:42:20;;;;;;;21.45;3.60;;;;;;;;;;4785278;30;20421;-92
2023/03/03 20:45:04;;;;;;;20.90;3.97;;;;;;;;;;4766007;30;20096;-90
2023/03/03 20:47:37;;;;;;;17.15;3.50;;;;;;;;;;4765747;30;20090;-89
2023/03/03 20:50:22;;;;;;;11.93;3.65;;;;;;;;;;4764354;30;20056;-89
2023/03/03 20:53:25;;;;;;;18.70;2.83;;;6.10;99.90;;;;;;4764491;30;20094;-89
2023/03/03 20:56:11;;;;;;;11.27;3.10;;;;;;;;;;4769192;30;20067;-95
2023/03/03 20:59:14;;;;;;;7.35;2.60;;;6.10;99.90;;;;;;4767773;30;20056;-96
2023/03/03 21:02:10;;;;;;;12.02;3.05;;;;;;;;;;4766632;30;20064;-96
2023/03/03 21:04:37;;;;;;;13.95;2.47;;;;;;;;;;4703571;30;20061;-95
2023/03/03 21:07:04;;;;;;;18.63;3.28;;;;;;;;;;4766415;30;20058;-97
2023/03/03 21:09:39;;;;;;;15.07;3.20;;;;;;;;;;4767014;30;20072;-96
2023/03/03 21:12:29;;;;;;;10.85;2.50;;;;;;;;;;4779269;30;20055;-94
2023/03/03 21:15:01;;;;;;;17.40;2.75;;;;;;;;;;4746935;30;20059;-95
2023/03/03 21:17:31;;;;;;;35.90;3.13;;;;;;;;;;4780652;30;20120;-96
2023/03/03 21:20:20;;;;;;;14.50;2.55;;;;;;;;;;4782689;30;20056;-96
2023/03/03 21:22:46;;;;;;;19.35;5.03;;;;;;;;;;4769077;30;20052;-94
2023/03/03 21:25:34;;;;;;;10.68;2.92;;;;;;;;;;4786052;30;20047;-94
2023/03/03 21:28:13;;;;;;;12.68;3.08;;;;;;;;;;4770709;30;20075;-94
2023/03/03 21:30:58;;;;;;;16.33;2.83;;;;;;;;;;4769681;30;20070;-96
2023/03/03 21:33:41;;;;;;;14.30;2.75;;;;;;;;;;4769270;30;20063;-96
2023/03/03 21:36:07;;;;;;;10.65;2.47;;;;;;;;;;4784414;30;20098;-95